sensor_id;sensor_type;location;lat;lon;timestamp;P1;durP1;ratioP1;P2;durP2;ratioP2
22164;SDS011;11248;52.512;13.520;2023-08-30T00:00:18;3.38;;;1.35;;
22164;SDS011;11248;52.512;13.520;2023-08-30T00:02:46;2.15;;;1.40;;
22164;SDS011;11248;52.512;13.520;2023-08-30T00:05:12;1.65;;;1.30;;
22164;SDS011;11248;52.512;13.520;2023-08-30T00:07:38;2.22;;;1.77;;
22164;SDS011;11248;52.512;13.520;2023-08-30T00:10:05;2.25;;;1.45;;
22164;SDS011;11248;52.512;13.520;2023-08-30T00:12:31;2.85;;;1.73;;
22164;SDS011;11248;52.512;13.520;2023-08-30T00:14:57;1.95;;;1.75;;
22164;SDS011;11248;52.512;13.520;2023-08-30T00:17:23;2.72;;;1.60;;
22164;SDS011;11248;52.512;13.520;2023-08-30T00:19:49;2.47;;;2.00;;
22164;SDS011;11248;52.512;13.520;2023-08-30T00:22:14;1.73;;;1.52;;
22164;SDS011;11248;52.512;13.520;2023-08-30T00:24:40;2.78;;;1.80;;
22164;SDS011;11248;52.512;13.520;2023-08-30T00:27:06;2.17;;;1.70;;
22164;SDS011;11248;52.512;13.520;2023-08-30T00:29:32;2.03;;;1.60;;
22164;SDS011;11248;52.512;13.520;2023-08-30T00:31:58;2.25;;;1.70;;
22164;SDS011;11248;52.512;13.520;2023-08-30T00:34:24;2.78;;;1.73;;
22164;SDS011;11248;52.512;13.520;2023-08-30T00:36:50;1.83;;;1.63;;
22164;SDS011;11248;52.512;13.520;2023-08-30T00:39:16;4.07;;;2.30;;
22164;SDS011;11248;52.512;13.520;2023-08-30T00:41:42;2.58;;;2.10;;
22164;SDS011;11248;52.512;13.520;2023-08-30T00:44:08;2.38;;;1.90;;
22164;SDS011;11248;52.512;13.520;2023-08-30T00:46:33;4.30;;;2.35;;
22164;SDS011;11248;52.512;13.520;2023-08-30T00:48:59;2.85;;;1.95;;
22164;SDS011;11248;52.512;13.520;2023-08-30T00:51:26;3.20;;;1.90;;
22164;SDS011;11248;52.512;13.520;2023-08-30T00:53:53;2.65;;;1.60;;
22164;SDS011;11248;52.512;13.520;2023-08-30T00:56:19;3.15;;;2.10;;
22164;SDS011;11248;52.512;13.520;2023-08-30T00:58:46;2.60;;;1.92;;
22164;SDS011;11248;52.512;13.520;2023-08-30T01:01:12;2.42;;;1.80;;
22164;SDS011;11248;52.512;13.520;2023-08-30T01:03:39;2.90;;;2.00;;
22164;SDS011;11248;52.512;13.520;2023-08-30T01:06:05;2.33;;;2.10;;
22164;SDS011;11248;52.512;13.520;2023-08-30T01:08:31;2.33;;;2.00;;
22164;SDS011;11248;52.512;13.520;2023-08-30T01:10:59;2.83;;;1.83;;
22164;SDS011;11248;52.512;13.520;2023-08-30T01:13:27;1.88;;;1.70;;
22164;SDS011;11248;52.512;13.520;2023-08-30T01:15:55;2.60;;;1.80;;
22164;SDS011;11248;52.512;13.520;2023-08-30T01:18:23;2.80;;;2.10;;
22164;SDS011;11248;52.512;13.520;2023-08-30T01:20:51;2.92;;;2.25;;
22164;SDS011;11248;52.512;13.520;2023-08-30T01:23:39;2.45;;;2.22;;
22164;SDS011;11248;52.512;13.520;2023-08-30T01:26:08;3.75;;;2.17;;
22164;SDS011;11248;52.512;13.520;2023-08-30T01:28:34;2.53;;;1.88;;
22164;SDS011;11248;52.512;13.520;2023-08-30T01:31:01;2.92;;;2.15;;
22164;SDS011;11248;52.512;13.520;2023-08-30T01:33:28;4.43;;;2.20;;
22164;SDS011;11248;52.512;13.520;2023-08-30T01:35:55;3.20;;;2.28;;
22164;SDS011;11248;52.512;13.520;2023-08-30T01:38:21;3.25;;;2.30;;
22164;SDS011;11248;52.512;13.520;2023-08-30T01:40:48;2.50;;;2.20;;
22164;SDS011;11248;52.512;13.520;2023-08-30T01:43:14;2.47;;;1.88;;
22164;SDS011;11248;52.512;13.520;2023-08-30T01:45:42;3.90;;;2.25;;
22164;SDS011;11248;52.512;13.520;2023-08-30T01:48:10;3.53;;;2.20;;
22164;SDS011;11248;52.512;13.520;2023-08-30T01:50:36;2.63;;;2.03;;
22164;SDS011;11248;52.512;13.520;2023-08-30T01:53:03;2.55;;;2.10;;
22164;SDS011;11248;52.512;13.520;2023-08-30T01:55:29;4.25;;;2.20;;
22164;SDS011;11248;52.512;13.520;2023-08-30T01:57:56;3.80;;;2.00;;
22164;SDS011;11248;52.512;13.520;2023-08-30T02:00:22;2.88;;;2.20;;
22164;SDS011;11248;52.512;13.520;2023-08-30T02:02:48;2.78;;;2.35;;
22164;SDS011;11248;52.512;13.520;2023-08-30T02:05:14;3.88;;;2.25;;
22164;SDS011;11248;52.512;13.520;2023-08-30T02:07:42;2.97;;;2.00;;
22164;SDS011;11248;52.512;13.520;2023-08-30T02:10:10;3.50;;;2.25;;
22164;SDS011;11248;52.512;13.520;2023-08-30T02:12:46;2.67;;;2.10;;
22164;SDS011;11248;52.512;13.520;2023-08-30T02:15:13;5.07;;;2.30;;
22164;SDS011;11248;52.512;13.520;2023-08-30T02:17:39;4.60;;;2.88;;
22164;SDS011;11248;52.512;13.520;2023-08-30T02:20:05;4.22;;;2.53;;
22164;SDS011;11248;52.512;13.520;2023-08-30T02:22:31;4.45;;;2.50;;
22164;SDS011;11248;52.512;13.520;2023-08-30T02:24:58;3.80;;;2.05;;
22164;SDS011;11248;52.512;13.520;2023-08-30T02:27:24;3.10;;;2.25;;
22164;SDS011;11248;52.512;13.520;2023-08-30T02:29:50;2.85;;;1.92;;
22164;SDS011;11248;52.512;13.520;2023-08-30T02:32:16;2.65;;;2.00;;
22164;SDS011;11248;52.512;13.520;2023-08-30T02:34:45;3.22;;;2.47;;
22164;SDS011;11248;52.512;13.520;2023-08-30T02:37:11;2.65;;;1.85;;
22164;SDS011;11248;52.512;13.520;2023-08-30T02:39:37;5.25;;;2.53;;
22164;SDS011;11248;52.512;13.520;2023-08-30T02:42:03;3.40;;;2.33;;
22164;SDS011;11248;52.512;13.520;2023-08-30T02:44:29;4.15;;;2.47;;
22164;SDS011;11248;52.512;13.520;2023-08-30T02:46:55;3.17;;;2.53;;
22164;SDS011;11248;52.512;13.520;2023-08-30T02:49:21;3.97;;;2.58;;
22164;SDS011;11248;52.512;13.520;2023-08-30T02:51:47;2.78;;;2.40;;
22164;SDS011;11248;52.512;13.520;2023-08-30T02:54:13;2.85;;;2.30;;
22164;SDS011;11248;52.512;13.520;2023-08-30T02:56:39;3.35;;;2.53;;
22164;SDS011;11248;52.512;13.520;2023-08-30T02:59:07;2.25;;;2.05;;
22164;SDS011;11248;52.512;13.520;2023-08-30T03:01:33;5.00;;;2.72;;
22164;SDS011;11248;52.512;13.520;2023-08-30T03:03:59;2.40;;;2.15;;
22164;SDS011;11248;52.512;13.520;2023-08-30T03:06:25;3.85;;;2.33;;
22164;SDS011;11248;52.512;13.520;2023-08-30T03:08:51;5.05;;;2.50;;
22164;SDS011;11248;52.512;13.520;2023-08-30T03:11:17;2.85;;;2.03;;
22164;SDS011;11248;52.512;13.520;2023-08-30T03:13:43;3.53;;;2.30;;
22164;SDS011;11248;52.512;13.520;2023-08-30T03:16:12;4.78;;;2.30;;
22164;SDS011;11248;52.512;13.520;2023-08-30T03:18:39;3.95;;;2.50;;
22164;SDS011;11248;52.512;13.520;2023-08-30T03:21:05;2.78;;;2.42;;
22164;SDS011;11248;52.512;13.520;2023-08-30T03:23:31;2.50;;;2.20;;
22164;SDS011;11248;52.512;13.520;2023-08-30T03:25:58;2.45;;;2.10;;
22164;SDS011;11248;52.512;13.520;2023-08-30T03:28:24;4.95;;;2.28;;
22164;SDS011;11248;52.512;13.520;2023-08-30T03:30:50;2.63;;;1.80;;
22164;SDS011;11248;52.512;13.520;2023-08-30T03:33:16;2.35;;;2.15;;
22164;SDS011;11248;52.512;13.520;2023-08-30T03:35:41;3.30;;;2.22;;
22164;SDS011;11248;52.512;13.520;2023-08-30T03:38:07;2.53;;;2.10;;
22164;SDS011;11248;52.512;13.520;2023-08-30T03:40:33;2.42;;;2.22;;
22164;SDS011;11248;52.512;13.520;2023-08-30T03:42:59;2.40;;;1.80;;
22164;SDS011;11248;52.512;13.520;2023-08-30T03:45:25;2.05;;;1.77;;
22164;SDS011;11248;52.512;13.520;2023-08-30T03:47:51;4.15;;;2.30;;
22164;SDS011;11248;52.512;13.520;2023-08-30T03:50:17;2.45;;;1.90;;
22164;SDS011;11248;52.512;13.520;2023-08-30T03:52:43;2.00;;;1.80;;
22164;SDS011;11248;52.512;13.520;2023-08-30T03:55:09;1.80;;;1.70;;
22164;SDS011;11248;52.512;13.520;2023-08-30T03:57:35;2.67;;;2.30;;
22164;SDS011;11248;52.512;13.520;2023-08-30T04:00:01;2.38;;;1.83;;
22164;SDS011;11248;52.512;13.520;2023-08-30T04:02:28;2.67;;;2.35;;
22164;SDS011;11248;52.512;13.520;2023-08-30T04:04:54;2.90;;;1.90;;
22164;SDS011;11248;52.512;13.520;2023-08-30T04:07:20;3.25;;;1.90;;
22164;SDS011;11248;52.512;13.520;2023-08-30T04:09:46;1.58;;;1.48;;
22164;SDS011;11248;52.512;13.520;2023-08-30T04:12:12;2.88;;;2.00;;
22164;SDS011;11248;52.512;13.520;2023-08-30T04:14:38;4.95;;;1.92;;
22164;SDS011;11248;52.512;13.520;2023-08-30T04:17:04;2.60;;;1.63;;
22164;SDS011;11248;52.512;13.520;2023-08-30T04:19:30;2.03;;;1.73;;
22164;SDS011;11248;52.512;13.520;2023-08-30T04:21:56;2.38;;;1.98;;
22164;SDS011;11248;52.512;13.520;2023-08-30T04:24:22;2.40;;;2.00;;
22164;SDS011;11248;52.512;13.520;2023-08-30T04:26:48;2.30;;;1.73;;
22164;SDS011;11248;52.512;13.520;2023-08-30T04:29:16;4.07;;;2.13;;
22164;SDS011;11248;52.512;13.520;2023-08-30T04:31:45;2.50;;;2.20;;
22164;SDS011;11248;52.512;13.520;2023-08-30T04:34:11;3.47;;;2.33;;
22164;SDS011;11248;52.512;13.520;2023-08-30T04:36:37;3.65;;;2.40;;
22164;SDS011;11248;52.512;13.520;2023-08-30T04:39:04;3.05;;;2.08;;
22164;SDS011;11248;52.512;13.520;2023-08-30T04:41:30;2.40;;;1.90;;
22164;SDS011;11248;52.512;13.520;2023-08-30T04:43:58;2.85;;;2.38;;
22164;SDS011;11248;52.512;13.520;2023-08-30T04:46:24;2.47;;;2.08;;
22164;SDS011;11248;52.512;13.520;2023-08-30T04:48:50;2.80;;;2.13;;
22164;SDS011;11248;52.512;13.520;2023-08-30T04:51:16;2.28;;;2.08;;
22164;SDS011;11248;52.512;13.520;2023-08-30T04:53:42;3.42;;;2.70;;
22164;SDS011;11248;52.512;13.520;2023-08-30T04:56:11;3.80;;;2.30;;
22164;SDS011;11248;52.512;13.520;2023-08-30T04:58:38;2.97;;;2.28;;
22164;SDS011;11248;52.512;13.520;2023-08-30T05:01:04;2.47;;;2.10;;
22164;SDS011;11248;52.512;13.520;2023-08-30T05:03:30;3.78;;;2.30;;
22164;SDS011;11248;52.512;13.520;2023-08-30T05:05:56;4.95;;;1.92;;
22164;SDS011;11248;52.512;13.520;2023-08-30T05:08:22;2.95;;;2.15;;
22164;SDS011;11248;52.512;13.520;2023-08-30T05:10:48;2.25;;;1.92;;
22164;SDS011;11248;52.512;13.520;2023-08-30T05:13:15;3.67;;;2.08;;
22164;SDS011;11248;52.512;13.520;2023-08-30T05:15:41;3.42;;;2.20;;
22164;SDS011;11248;52.512;13.520;2023-08-30T05:18:07;2.90;;;2.40;;
22164;SDS011;11248;52.512;13.520;2023-08-30T05:20:33;3.95;;;3.00;;
22164;SDS011;11248;52.512;13.520;2023-08-30T05:22:59;3.22;;;2.75;;
22164;SDS011;11248;52.512;13.520;2023-08-30T05:25:25;4.32;;;2.72;;
22164;SDS011;11248;52.512;13.520;2023-08-30T05:27:51;3.45;;;2.90;;
22164;SDS011;11248;52.512;13.520;2023-08-30T05:30:17;3.30;;;2.97;;
22164;SDS011;11248;52.512;13.520;2023-08-30T05:32:43;4.60;;;3.00;;
22164;SDS011;11248;52.512;13.520;2023-08-30T05:35:09;3.85;;;2.85;;
22164;SDS011;11248;52.512;13.520;2023-08-30T05:37:35;2.95;;;2.65;;
22164;SDS011;11248;52.512;13.520;2023-08-30T05:40:00;4.22;;;2.85;;
22164;SDS011;11248;52.512;13.520;2023-08-30T05:42:27;3.88;;;2.65;;
22164;SDS011;11248;52.512;13.520;2023-08-30T05:44:53;3.90;;;2.20;;
22164;SDS011;11248;52.512;13.520;2023-08-30T05:47:20;3.15;;;2.85;;
22164;SDS011;11248;52.512;13.520;2023-08-30T05:49:45;4.28;;;2.70;;
22164;SDS011;11248;52.512;13.520;2023-08-30T05:52:11;3.80;;;3.20;;
22164;SDS011;11248;52.512;13.520;2023-08-30T05:54:37;4.55;;;2.90;;
22164;SDS011;11248;52.512;13.520;2023-08-30T05:57:03;3.47;;;2.35;;
22164;SDS011;11248;52.512;13.520;2023-08-30T05:59:29;3.47;;;3.10;;
22164;SDS011;11248;52.512;13.520;2023-08-30T06:01:55;2.65;;;2.30;;
22164;SDS011;11248;52.512;13.520;2023-08-30T06:04:21;4.82;;;2.92;;
22164;SDS011;11248;52.512;13.520;2023-08-30T06:06:47;4.88;;;2.60;;
22164;SDS011;11248;52.512;13.520;2023-08-30T06:09:13;3.33;;;2.70;;
22164;SDS011;11248;52.512;13.520;2023-08-30T06:11:39;2.92;;;2.53;;
22164;SDS011;11248;52.512;13.520;2023-08-30T06:14:05;3.97;;;3.20;;
22164;SDS011;11248;52.512;13.520;2023-08-30T06:16:31;7.00;;;2.80;;
22164;SDS011;11248;52.512;13.520;2023-08-30T06:18:57;3.13;;;2.75;;
22164;SDS011;11248;52.512;13.520;2023-08-30T06:21:24;9.50;;;3.40;;
22164;SDS011;11248;52.512;13.520;2023-08-30T06:23:50;3.92;;;2.70;;
22164;SDS011;11248;52.512;13.520;2023-08-30T06:26:16;4.47;;;2.95;;
22164;SDS011;11248;52.512;13.520;2023-08-30T06:28:42;4.32;;;3.30;;
22164;SDS011;11248;52.512;13.520;2023-08-30T06:31:09;6.18;;;3.25;;
22164;SDS011;11248;52.512;13.520;2023-08-30T06:33:35;3.60;;;2.58;;
22164;SDS011;11248;52.512;13.520;2023-08-30T06:36:01;3.38;;;2.58;;
22164;SDS011;11248;52.512;13.520;2023-08-30T06:38:27;4.38;;;2.83;;
22164;SDS011;11248;52.512;13.520;2023-08-30T06:40:53;2.65;;;2.38;;
22164;SDS011;11248;52.512;13.520;2023-08-30T06:43:19;4.13;;;2.70;;
22164;SDS011;11248;52.512;13.520;2023-08-30T06:45:45;3.28;;;2.72;;
22164;SDS011;11248;52.512;13.520;2023-08-30T06:48:11;3.63;;;2.80;;
22164;SDS011;11248;52.512;13.520;2023-08-30T06:50:37;5.15;;;3.40;;
22164;SDS011;11248;52.512;13.520;2023-08-30T06:53:03;3.88;;;2.80;;
22164;SDS011;11248;52.512;13.520;2023-08-30T06:55:29;3.78;;;2.70;;
22164;SDS011;11248;52.512;13.520;2023-08-30T06:57:56;3.47;;;2.75;;
22164;SDS011;11248;52.512;13.520;2023-08-30T07:00:22;4.07;;;2.90;;
22164;SDS011;11248;52.512;13.520;2023-08-30T07:02:48;3.55;;;2.63;;
22164;SDS011;11248;52.512;13.520;2023-08-30T07:05:14;3.67;;;2.85;;
22164;SDS011;11248;52.512;13.520;2023-08-30T07:07:40;4.30;;;2.88;;
22164;SDS011;11248;52.512;13.520;2023-08-30T07:10:06;3.83;;;2.75;;
22164;SDS011;11248;52.512;13.520;2023-08-30T07:12:33;4.20;;;2.70;;
22164;SDS011;11248;52.512;13.520;2023-08-30T07:14:59;3.75;;;2.90;;
22164;SDS011;11248;52.512;13.520;2023-08-30T07:17:24;3.40;;;2.55;;
22164;SDS011;11248;52.512;13.520;2023-08-30T07:19:50;3.92;;;3.20;;
22164;SDS011;11248;52.512;13.520;2023-08-30T07:22:16;5.00;;;2.58;;
22164;SDS011;11248;52.512;13.520;2023-08-30T07:24:42;6.53;;;3.10;;
22164;SDS011;11248;52.512;13.520;2023-08-30T07:27:08;5.65;;;2.80;;
22164;SDS011;11248;52.512;13.520;2023-08-30T07:29:34;4.50;;;2.60;;
22164;SDS011;11248;52.512;13.520;2023-08-30T07:32:00;4.35;;;2.58;;
22164;SDS011;11248;52.512;13.520;2023-08-30T07:34:27;4.45;;;2.00;;
22164;SDS011;11248;52.512;13.520;2023-08-30T07:36:53;2.83;;;2.20;;
22164;SDS011;11248;52.512;13.520;2023-08-30T07:39:20;3.78;;;2.20;;
22164;SDS011;11248;52.512;13.520;2023-08-30T07:41:46;3.28;;;2.20;;
22164;SDS011;11248;52.512;13.520;2023-08-30T07:44:12;2.63;;;1.63;;
22164;SDS011;11248;52.512;13.520;2023-08-30T07:46:39;3.13;;;1.90;;
22164;SDS011;11248;52.512;13.520;2023-08-30T07:49:05;3.95;;;2.08;;
22164;SDS011;11248;52.512;13.520;2023-08-30T07:51:31;3.25;;;2.20;;
22164;SDS011;11248;52.512;13.520;2023-08-30T07:53:57;1.85;;;1.67;;
22164;SDS011;11248;52.512;13.520;2023-08-30T07:56:23;3.13;;;1.83;;
22164;SDS011;11248;52.512;13.520;2023-08-30T07:58:49;1.88;;;1.67;;
22164;SDS011;11248;52.512;13.520;2023-08-30T08:01:15;3.58;;;2.03;;
22164;SDS011;11248;52.512;13.520;2023-08-30T08:03:41;2.17;;;1.83;;
22164;SDS011;11248;52.512;13.520;2023-08-30T08:06:06;2.25;;;1.70;;
22164;SDS011;11248;52.512;13.520;2023-08-30T08:08:32;1.83;;;1.40;;
22164;SDS011;11248;52.512;13.520;2023-08-30T08:10:59;2.15;;;1.60;;
22164;SDS011;11248;52.512;13.520;2023-08-30T08:13:25;2.15;;;1.50;;
22164;SDS011;11248;52.512;13.520;2023-08-30T08:15:51;2.50;;;1.48;;
22164;SDS011;11248;52.512;13.520;2023-08-30T08:18:16;2.25;;;1.40;;
22164;SDS011;11248;52.512;13.520;2023-08-30T08:20:42;1.73;;;1.35;;
22164;SDS011;11248;52.512;13.520;2023-08-30T08:23:09;1.38;;;1.10;;
22164;SDS011;11248;52.512;13.520;2023-08-30T08:25:35;1.73;;;1.30;;
22164;SDS011;11248;52.512;13.520;2023-08-30T08:28:01;1.30;;;1.20;;
22164;SDS011;11248;52.512;13.520;2023-08-30T08:30:28;1.48;;;1.38;;
22164;SDS011;11248;52.512;13.520;2023-08-30T08:32:54;1.77;;;1.35;;
22164;SDS011;11248;52.512;13.520;2023-08-30T08:35:21;1.85;;;1.10;;
22164;SDS011;11248;52.512;13.520;2023-08-30T08:37:46;1.20;;;1.10;;
22164;SDS011;11248;52.512;13.520;2023-08-30T08:40:12;3.92;;;1.83;;
22164;SDS011;11248;52.512;13.520;2023-08-30T08:42:38;2.05;;;1.50;;
22164;SDS011;11248;52.512;13.520;2023-08-30T08:45:05;3.60;;;1.27;;
22164;SDS011;11248;52.512;13.520;2023-08-30T08:47:32;1.23;;;1.10;;
22164;SDS011;11248;52.512;13.520;2023-08-30T08:49:58;1.63;;;1.35;;
22164;SDS011;11248;52.512;13.520;2023-08-30T08:52:25;1.67;;;1.10;;
22164;SDS011;11248;52.512;13.520;2023-08-30T08:54:51;1.55;;;1.23;;
22164;SDS011;11248;52.512;13.520;2023-08-30T08:57:18;1.20;;;1.10;;
22164;SDS011;11248;52.512;13.520;2023-08-30T08:59:44;1.33;;;1.20;;
22164;SDS011;11248;52.512;13.520;2023-08-30T09:02:11;1.40;;;1.17;;
22164;SDS011;11248;52.512;13.520;2023-08-30T09:04:38;2.10;;;1.30;;
22164;SDS011;11248;52.512;13.520;2023-08-30T09:07:04;2.17;;;1.50;;
22164;SDS011;11248;52.512;13.520;2023-08-30T09:09:30;2.15;;;1.45;;
22164;SDS011;11248;52.512;13.520;2023-08-30T09:11:56;2.00;;;1.30;;
22164;SDS011;11248;52.512;13.520;2023-08-30T09:14:22;2.05;;;1.45;;
22164;SDS011;11248;52.512;13.520;2023-08-30T09:16:55;1.85;;;1.50;;
22164;SDS011;11248;52.512;13.520;2023-08-30T09:19:21;1.63;;;1.45;;
22164;SDS011;11248;52.512;13.520;2023-08-30T09:21:54;2.10;;;1.25;;
22164;SDS011;11248;52.512;13.520;2023-08-30T09:24:20;1.88;;;1.40;;
22164;SDS011;11248;52.512;13.520;2023-08-30T09:26:47;1.52;;;1.42;;
22164;SDS011;11248;52.512;13.520;2023-08-30T09:29:14;1.95;;;1.40;;
22164;SDS011;11248;52.512;13.520;2023-08-30T09:31:41;2.55;;;1.40;;
22164;SDS011;11248;52.512;13.520;2023-08-30T09:34:07;3.25;;;1.15;;
22164;SDS011;11248;52.512;13.520;2023-08-30T09:36:34;2.65;;;1.25;;
22164;SDS011;11248;52.512;13.520;2023-08-30T09:39:03;2.10;;;1.10;;
22164;SDS011;11248;52.512;13.520;2023-08-30T09:41:29;2.45;;;1.23;;
22164;SDS011;11248;52.512;13.520;2023-08-30T09:43:57;2.50;;;1.40;;
22164;SDS011;11248;52.512;13.520;2023-08-30T09:46:23;1.25;;;1.00;;
22164;SDS011;11248;52.512;13.520;2023-08-30T09:48:50;1.45;;;1.10;;
22164;SDS011;11248;52.512;13.520;2023-08-30T09:51:16;1.58;;;1.02;;
22164;SDS011;11248;52.512;13.520;2023-08-30T09:53:43;3.08;;;1.40;;
22164;SDS011;11248;52.512;13.520;2023-08-30T09:56:11;2.42;;;1.75;;
22164;SDS011;11248;52.512;13.520;2023-08-30T09:58:39;2.10;;;1.55;;
22164;SDS011;11248;52.512;13.520;2023-08-30T10:01:07;1.77;;;1.58;;
22164;SDS011;11248;52.512;13.520;2023-08-30T10:03:33;3.15;;;1.70;;
22164;SDS011;11248;52.512;13.520;2023-08-30T10:06:00;1.58;;;1.30;;
22164;SDS011;11248;52.512;13.520;2023-08-30T10:08:30;1.75;;;1.42;;
22164;SDS011;11248;52.512;13.520;2023-08-30T10:11:00;3.50;;;1.58;;
22164;SDS011;11248;52.512;13.520;2023-08-30T10:13:26;1.48;;;1.30;;
22164;SDS011;11248;52.512;13.520;2023-08-30T10:15:53;2.63;;;1.58;;
22164;SDS011;11248;52.512;13.520;2023-08-30T10:18:23;2.33;;;1.30;;
22164;SDS011;11248;52.512;13.520;2023-08-30T10:20:51;2.10;;;1.52;;
22164;SDS011;11248;52.512;13.520;2023-08-30T10:23:19;2.83;;;1.55;;
22164;SDS011;11248;52.512;13.520;2023-08-30T10:25:46;2.90;;;1.27;;
22164;SDS011;11248;52.512;13.520;2023-08-30T10:28:14;2.47;;;1.20;;
22164;SDS011;11248;52.512;13.520;2023-08-30T10:30:40;1.58;;;1.02;;
22164;SDS011;11248;52.512;13.520;2023-08-30T10:33:13;1.98;;;1.23;;
22164;SDS011;11248;52.512;13.520;2023-08-30T10:35:49;2.35;;;1.20;;
22164;SDS011;11248;52.512;13.520;2023-08-30T10:38:24;2.22;;;1.10;;
22164;SDS011;11248;52.512;13.520;2023-08-30T10:40:51;3.83;;;1.52;;
22164;SDS011;11248;52.512;13.520;2023-08-30T10:43:27;1.58;;;1.08;;
22164;SDS011;11248;52.512;13.520;2023-08-30T10:46:00;1.95;;;0.85;;
22164;SDS011;11248;52.512;13.520;2023-08-30T10:48:36;1.40;;;1.17;;
22164;SDS011;11248;52.512;13.520;2023-08-30T10:51:02;1.52;;;1.00;;
22164;SDS011;11248;52.512;13.520;2023-08-30T10:53:29;0.95;;;0.93;;
22164;SDS011;11248;52.512;13.520;2023-08-30T10:56:11;2.17;;;1.23;;
22164;SDS011;11248;52.512;13.520;2023-08-30T10:58:43;1.70;;;1.33;;
22164;SDS011;11248;52.512;13.520;2023-08-30T11:01:10;2.75;;;1.30;;
22164;SDS011;11248;52.512;13.520;2023-08-30T11:03:40;3.58;;;1.20;;
22164;SDS011;11248;52.512;13.520;2023-08-30T11:06:05;2.47;;;1.30;;
22164;SDS011;11248;52.512;13.520;2023-08-30T11:08:31;3.15;;;1.30;;
22164;SDS011;11248;52.512;13.520;2023-08-30T11:11:06;3.10;;;1.10;;
22164;SDS011;11248;52.512;13.520;2023-08-30T11:13:34;1.63;;;1.02;;
22164;SDS011;11248;52.512;13.520;2023-08-30T11:16:01;1.65;;;1.20;;
22164;SDS011;11248;52.512;13.520;2023-08-30T11:18:28;3.90;;;1.38;;
22164;SDS011;11248;52.512;13.520;2023-08-30T11:20:58;1.27;;;0.85;;
22164;SDS011;11248;52.512;13.520;2023-08-30T11:23:25;1.77;;;1.20;;
22164;SDS011;11248;52.512;13.520;2023-08-30T11:25:51;1.80;;;1.20;;
22164;SDS011;11248;52.512;13.520;2023-08-30T11:28:23;3.25;;;1.50;;
22164;SDS011;11248;52.512;13.520;2023-08-30T11:30:50;2.05;;;1.10;;
22164;SDS011;11248;52.512;13.520;2023-08-30T11:33:17;1.85;;;1.10;;
22164;SDS011;11248;52.512;13.520;2023-08-30T11:35:45;1.30;;;1.13;;
22164;SDS011;11248;52.512;13.520;2023-08-30T11:38:13;2.95;;;1.38;;
22164;SDS011;11248;52.512;13.520;2023-08-30T11:40:39;1.60;;;1.20;;
22164;SDS011;11248;52.512;13.520;2023-08-30T11:43:06;1.67;;;1.35;;
22164;SDS011;11248;52.512;13.520;2023-08-30T11:45:32;1.52;;;0.88;;
22164;SDS011;11248;52.512;13.520;2023-08-30T11:48:01;2.83;;;1.40;;
22164;SDS011;11248;52.512;13.520;2023-08-30T11:50:28;2.40;;;1.45;;
22164;SDS011;11248;52.512;13.520;2023-08-30T11:52:54;1.92;;;1.20;;
22164;SDS011;11248;52.512;13.520;2023-08-30T11:55:20;1.40;;;1.10;;
22164;SDS011;11248;52.512;13.520;2023-08-30T11:57:50;1.77;;;1.00;;
22164;SDS011;11248;52.512;13.520;2023-08-30T12:00:18;2.60;;;1.20;;
22164;SDS011;11248;52.512;13.520;2023-08-30T12:02:45;2.53;;;1.20;;
22164;SDS011;11248;52.512;13.520;2023-08-30T12:05:12;1.10;;;1.00;;
22164;SDS011;11248;52.512;13.520;2023-08-30T12:07:38;2.65;;;1.38;;
22164;SDS011;11248;52.512;13.520;2023-08-30T12:10:05;1.77;;;1.25;;
22164;SDS011;11248;52.512;13.520;2023-08-30T12:12:31;1.10;;;0.95;;
22164;SDS011;11248;52.512;13.520;2023-08-30T12:14:57;1.30;;;1.20;;
22164;SDS011;11248;52.512;13.520;2023-08-30T12:17:23;1.25;;;1.15;;
22164;SDS011;11248;52.512;13.520;2023-08-30T12:19:56;0.98;;;0.88;;
22164;SDS011;11248;52.512;13.520;2023-08-30T12:22:22;1.63;;;1.05;;
22164;SDS011;11248;52.512;13.520;2023-08-30T12:24:48;1.27;;;1.15;;
22164;SDS011;11248;52.512;13.520;2023-08-30T12:27:14;2.38;;;1.30;;
22164;SDS011;11248;52.512;13.520;2023-08-30T12:29:40;1.50;;;1.25;;
22164;SDS011;11248;52.512;13.520;2023-08-30T12:32:06;1.63;;;0.98;;
22164;SDS011;11248;52.512;13.520;2023-08-30T12:34:32;1.30;;;1.20;;
22164;SDS011;11248;52.512;13.520;2023-08-30T12:36:58;1.20;;;1.10;;
22164;SDS011;11248;52.512;13.520;2023-08-30T12:39:25;1.58;;;1.23;;
22164;SDS011;11248;52.512;13.520;2023-08-30T12:41:51;1.52;;;1.30;;
22164;SDS011;11248;52.512;13.520;2023-08-30T12:44:17;1.60;;;1.17;;
22164;SDS011;11248;52.512;13.520;2023-08-30T12:46:42;1.45;;;1.05;;
22164;SDS011;11248;52.512;13.520;2023-08-30T12:49:09;1.17;;;1.05;;
22164;SDS011;11248;52.512;13.520;2023-08-30T12:51:35;3.45;;;1.25;;
22164;SDS011;11248;52.512;13.520;2023-08-30T12:54:01;2.60;;;1.10;;
22164;SDS011;11248;52.512;13.520;2023-08-30T12:56:27;2.30;;;1.08;;
22164;SDS011;11248;52.512;13.520;2023-08-30T12:58:52;2.17;;;1.30;;
22164;SDS011;11248;52.512;13.520;2023-08-30T13:01:18;1.40;;;1.10;;
22164;SDS011;11248;52.512;13.520;2023-08-30T13:03:44;1.40;;;1.13;;
22164;SDS011;11248;52.512;13.520;2023-08-30T13:06:10;3.45;;;1.33;;
22164;SDS011;11248;52.512;13.520;2023-08-30T13:08:36;1.40;;;1.30;;
22164;SDS011;11248;52.512;13.520;2023-08-30T13:11:02;1.25;;;0.93;;
22164;SDS011;11248;52.512;13.520;2023-08-30T13:13:29;2.08;;;1.30;;
22164;SDS011;11248;52.512;13.520;2023-08-30T13:15:55;1.58;;;1.13;;
22164;SDS011;11248;52.512;13.520;2023-08-30T13:18:20;1.35;;;1.10;;
22164;SDS011;11248;52.512;13.520;2023-08-30T13:20:46;2.53;;;1.10;;
22164;SDS011;11248;52.512;13.520;2023-08-30T13:23:12;2.50;;;1.10;;
22164;SDS011;11248;52.512;13.520;2023-08-30T13:25:39;2.13;;;1.30;;
22164;SDS011;11248;52.512;13.520;2023-08-30T13:28:05;2.30;;;1.20;;
22164;SDS011;11248;52.512;13.520;2023-08-30T13:30:31;1.92;;;1.38;;
22164;SDS011;11248;52.512;13.520;2023-08-30T13:32:57;1.73;;;1.20;;
22164;SDS011;11248;52.512;13.520;2023-08-30T13:35:23;1.52;;;1.08;;
22164;SDS011;11248;52.512;13.520;2023-08-30T13:37:49;1.92;;;1.20;;
22164;SDS011;11248;52.512;13.520;2023-08-30T13:40:15;0.98;;;0.95;;
22164;SDS011;11248;52.512;13.520;2023-08-30T13:42:41;1.45;;;1.10;;
22164;SDS011;11248;52.512;13.520;2023-08-30T13:45:07;1.20;;;1.10;;
22164;SDS011;11248;52.512;13.520;2023-08-30T13:47:34;2.35;;;1.23;;
22164;SDS011;11248;52.512;13.520;2023-08-30T13:50:00;1.83;;;1.17;;
22164;SDS011;11248;52.512;13.520;2023-08-30T13:52:26;1.58;;;1.00;;
22164;SDS011;11248;52.512;13.520;2023-08-30T13:54:55;1.63;;;1.00;;
22164;SDS011;11248;52.512;13.520;2023-08-30T13:57:21;1.75;;;1.20;;
22164;SDS011;11248;52.512;13.520;2023-08-30T13:59:47;1.20;;;1.02;;
22164;SDS011;11248;52.512;13.520;2023-08-30T14:02:13;0.80;;;0.80;;
22164;SDS011;11248;52.512;13.520;2023-08-30T14:04:39;1.70;;;1.23;;
22164;SDS011;11248;52.512;13.520;2023-08-30T14:07:05;2.45;;;1.13;;
22164;SDS011;11248;52.512;13.520;2023-08-30T14:09:31;1.65;;;1.20;;
22164;SDS011;11248;52.512;13.520;2023-08-30T14:11:57;1.35;;;0.98;;
22164;SDS011;11248;52.512;13.520;2023-08-30T14:14:23;2.33;;;1.08;;
22164;SDS011;11248;52.512;13.520;2023-08-30T14:16:48;1.63;;;1.15;;
22164;SDS011;11248;52.512;13.520;2023-08-30T14:19:15;1.35;;;1.20;;
22164;SDS011;11248;52.512;13.520;2023-08-30T14:21:41;1.08;;;0.98;;
22164;SDS011;11248;52.512;13.520;2023-08-30T14:24:07;2.05;;;1.40;;
22164;SDS011;11248;52.512;13.520;2023-08-30T14:26:33;2.45;;;1.13;;
22164;SDS011;11248;52.512;13.520;2023-08-30T14:28:59;4.63;;;1.30;;